首页
METAR-TAF:

METAR-TAF

机场 :

森讷堡机场

Sønderborg, 丹麦

纬度: 54-58N, 经度: 009-47E, 海拔: 7米

当前天气观测

该预报发布于34分钟前的21:20 UTC
风速12节,风向东转东南
温度 20°C
湿度 56%
气压 1021 hPa
能见度10公里或以上

METAR: EKSB 112120Z AUTO 11012KT 9999NDV VV009 20/11 Q1021

时间: 23:54 (21:54 UTC)

预报

该预报发布于12小时和57分钟前的08:57 UTC
预报有效从11日的 09点(UTC)到 11日的 13点(UTC)
风速12节,风向东转东南
能见度10公里或以上
少量云层高于1500英尺

TAF: EKSB 110857Z 1109/1113 12012KT 9999 FEW015

超过4000个机场的气象观测和天气预报(METAR&TAF报告)。

可查询的气象台以黄色和红色小点在地图上表示。

将鼠标移到小点上方,可查看气象台名称。

然后点击查看天气观测和预报。

如需切换地图:点击带黑十字的绿色按钮放大地图;点击带横线的绿色按钮缩小地图;或者点击绿色箭头查看邻近地区的地图。


METAR-TAF: